Hermann - S — V2EI6 — position and weather

sailwx.info

Track history (hours):
 
Tides and Currents Weather Stations Pressure Air Temp Water Temp Dewpoint Dewpoint Depression Visibility Wind Speed Wind Dir Waves Ship Positions

Hermann - S

Last reported at 2015-May-27 08:33 UTC. Time now 2015-May-27 11:51 UTC.
Position N 38°50' E 121°50'.

Length 190 m; draft 12.7 m.

Type: Cargo ship. MMSI: 305441000.

Date/timePositionNaut miles runAvg speedWind from/ knotsBaromVisibWave heightAir tempDewpointWater temp
2015-May-27 08:33N 38°50' E 121°50'  
2015-May-25 00:32N 38°53' E 122°02'2 0.1
2015-May-24 06:33N 38°51' E 122°03'2411.6
2015-May-24 04:30N 38°32' E 122°20'1312.1
2015-May-24 03:26N 38°22' E 122°31'1112.3
2015-May-24 02:33N 38°13' E 122°39'1212.5
2015-May-24 01:33N 38°04' E 122°49'1212.4
2015-May-24 00:33N 37°54' E 122°59'1212.0
2015-May-23 23:33N 37°44' E 123°07'1211.7
2015-May-23 22:33N 37°34' E 123°15'1111.1
2015-May-23 21:33N 37°24' E 123°20'1110.7
2015-May-23 20:33N 37°14' E 123°26'10 9.8
2015-May-23 19:32N 37°04' E 123°24'1110.8
2015-May-23 18:33N 36°53' E 123°25'1311.0
2015-May-23 17:23N 36°41' E 123°27'1011.3
2015-May-23 16:29N 36°30' E 123°27'1111.3
2015-May-23 15:31N 36°20' E 123°28'1611.0
2015-May-23 14:04N 36°04' E 123°29'610.7
2015-May-23 13:32N 35°58' E 123°29'22011.5
2015-May-22 18:18N 32°18' E 123°50'1112.8
2015-May-22 17:25N 32°07' E 123°52'1612.1
2015-May-22 16:06N 31°51' E 123°52'711.3
2015-May-22 15:26N 31°44' E 123°52'4010.3
2015-May-22 11:33N 31°04' E 123°56'9 9.5
2015-May-22 10:33N 30°54' E 123°57'1010.0
2015-May-22 09:32N 30°44' E 123°60'12 9.5
2015-May-22 08:19N 30°33' E 124°01'911.1
2015-May-22 07:33N 30°24' E 123°59'1211.4
2015-May-22 06:29N 30°13' E 123°56'1211.9
2015-May-22 05:28N 30°01' E 123°52'10711.6
2015-May-21 20:15N 28°16' E 123°28'  
Track history (hours):
 
Tides and Currents Weather Stations Pressure Air Temp Water Temp Dewpoint Dewpoint Depression Visibility Wind Speed Wind Dir Waves Ship Positions

Hermann - S

Last reported at 2015-May-27 08:33 UTC. Time now 2015-May-27 11:51 UTC.
Position N 38°50' E 121°50'.

Length 190 m; draft 12.7 m.

Type: Cargo ship. MMSI: 305441000.

Date/timePositionNaut miles runAvg speedWind from/ knotsBaromVisibWave heightAir tempDewpointWater temp
2015-May-27 08:33N 38°50' E 121°50'  
2015-May-25 00:32N 38°53' E 122°02'2 0.1
2015-May-24 06:33N 38°51' E 122°03'2411.6
2015-May-24 04:30N 38°32' E 122°20'1312.1
2015-May-24 03:26N 38°22' E 122°31'1112.3
2015-May-24 02:33N 38°13' E 122°39'1212.5
2015-May-24 01:33N 38°04' E 122°49'1212.4
2015-May-24 00:33N 37°54' E 122°59'1212.0
2015-May-23 23:33N 37°44' E 123°07'1211.7
2015-May-23 22:33N 37°34' E 123°15'1111.1
2015-May-23 21:33N 37°24' E 123°20'1110.7
2015-May-23 20:33N 37°14' E 123°26'10 9.8
2015-May-23 19:32N 37°04' E 123°24'1110.8
2015-May-23 18:33N 36°53' E 123°25'1311.0
2015-May-23 17:23N 36°41' E 123°27'1011.3
2015-May-23 16:29N 36°30' E 123°27'1111.3
2015-May-23 15:31N 36°20' E 123°28'1611.0
2015-May-23 14:04N 36°04' E 123°29'610.7
2015-May-23 13:32N 35°58' E 123°29'22011.5
2015-May-22 18:18N 32°18' E 123°50'1112.8
2015-May-22 17:25N 32°07' E 123°52'1612.1
2015-May-22 16:06N 31°51' E 123°52'711.3
2015-May-22 15:26N 31°44' E 123°52'4010.3
2015-May-22 11:33N 31°04' E 123°56'9 9.5
2015-May-22 10:33N 30°54' E 123°57'1010.0
2015-May-22 09:32N 30°44' E 123°60'12 9.5
2015-May-22 08:19N 30°33' E 124°01'911.1
2015-May-22 07:33N 30°24' E 123°59'1211.4
2015-May-22 06:29N 30°13' E 123°56'1211.9
2015-May-22 05:28N 30°01' E 123°52'10711.6
2015-May-21 20:15N 28°16' E 123°28'  

Dump ship's entire track history